Terminal Aerodrome Forecast
Issued by NWS Northern Indiana

Home | Current Version | Previous Version | Text Only | Print | Product List | Glossary On
Versions: 1 2 3 4 5 6 7 8 9 10 11 12 13 14 15 16 17 18
000
FTUS43 KIWX 221013 AAC
TAFFWA
TAF AMD
KFWA 221013Z 2210/2306 15006KT P6SM SCT040 BKN100 WS020/21055KT
      TEMPO 2210/2212 5SM -SHRA BR BKN040
     FM221600 17012G20KT 3SM -RA BR BKN015
     FM222300 18011KT 5SM -SHRA BR BKN025=

USA.gov is the U.S. government's official web portal to all federal, state and local government web resources and services.